sensor_id;sensor_type;location;lat;lon;timestamp;temperature;humidity
57026;DHT22;43961;52.940;6.834;2023-04-24T00:00:01;10.70;99.90
57026;DHT22;43961;52.940;6.834;2023-04-24T00:02:30;10.70;99.90
57026;DHT22;43961;52.940;6.834;2023-04-24T00:04:57;10.70;99.90
57026;DHT22;43961;52.940;6.834;2023-04-24T00:07:22;10.70;99.90
57026;DHT22;43961;52.940;6.834;2023-04-24T00:09:48;10.60;99.90
57026;DHT22;43961;52.940;6.834;2023-04-24T00:12:14;10.60;99.90
57026;DHT22;43961;52.940;6.834;2023-04-24T00:14:39;10.50;99.90
57026;DHT22;43961;52.940;6.834;2023-04-24T00:17:06;10.50;99.90
57026;DHT22;43961;52.940;6.834;2023-04-24T00:19:32;10.50;99.90
57026;DHT22;43961;52.940;6.834;2023-04-24T00:21:58;10.50;99.90
57026;DHT22;43961;52.940;6.834;2023-04-24T00:24:23;10.40;99.90
57026;DHT22;43961;52.940;6.834;2023-04-24T00:26:49;10.50;99.90
57026;DHT22;43961;52.940;6.834;2023-04-24T00:29:14;10.40;99.90
57026;DHT22;43961;52.940;6.834;2023-04-24T00:31:40;10.40;99.90
57026;DHT22;43961;52.940;6.834;2023-04-24T00:34:06;10.40;99.90
57026;DHT22;43961;52.940;6.834;2023-04-24T00:36:33;10.40;99.90
57026;DHT22;43961;52.940;6.834;2023-04-24T00:38:58;10.40;99.90
57026;DHT22;43961;52.940;6.834;2023-04-24T00:41:27;10.30;99.90
57026;DHT22;43961;52.940;6.834;2023-04-24T00:43:53;10.30;99.90
57026;DHT22;43961;52.940;6.834;2023-04-24T00:46:19;10.30;99.90
57026;DHT22;43961;52.940;6.834;2023-04-24T00:48:45;10.30;99.90
57026;DHT22;43961;52.940;6.834;2023-04-24T00:51:11;10.30;99.90
57026;DHT22;43961;52.940;6.834;2023-04-24T00:53:37;10.30;99.90
57026;DHT22;43961;52.940;6.834;2023-04-24T00:56:04;10.30;99.90
57026;DHT22;43961;52.940;6.834;2023-04-24T00:58:30;10.30;99.90
57026;DHT22;43961;52.940;6.834;2023-04-24T01:00:57;10.20;99.90
57026;DHT22;43961;52.940;6.834;2023-04-24T01:03:29;10.30;99.90
57026;DHT22;43961;52.940;6.834;2023-04-24T01:05:55;10.30;99.90
57026;DHT22;43961;52.940;6.834;2023-04-24T01:08:24;10.30;99.90
57026;DHT22;43961;52.940;6.834;2023-04-24T01:10:50;10.30;99.90
57026;DHT22;43961;52.940;6.834;2023-04-24T01:13:16;10.30;99.90
57026;DHT22;43961;52.940;6.834;2023-04-24T01:15:43;10.30;99.90
57026;DHT22;43961;52.940;6.834;2023-04-24T01:18:09;10.30;99.90
57026;DHT22;43961;52.940;6.834;2023-04-24T01:20:37;10.30;99.90
57026;DHT22;43961;52.940;6.834;2023-04-24T01:23:06;10.30;99.90
57026;DHT22;43961;52.940;6.834;2023-04-24T01:25:32;10.30;99.90
57026;DHT22;43961;52.940;6.834;2023-04-24T01:27:58;10.30;99.90
57026;DHT22;43961;52.940;6.834;2023-04-24T01:30:24;10.30;99.90
57026;DHT22;43961;52.940;6.834;2023-04-24T01:32:51;10.40;99.90
57026;DHT22;43961;52.940;6.834;2023-04-24T01:35:17;10.30;99.90
57026;DHT22;43961;52.940;6.834;2023-04-24T01:37:43;10.30;99.90
57026;DHT22;43961;52.940;6.834;2023-04-24T01:40:09;10.30;99.90
57026;DHT22;43961;52.940;6.834;2023-04-24T01:42:36;10.20;99.90
57026;DHT22;43961;52.940;6.834;2023-04-24T01:45:03;10.20;99.90
57026;DHT22;43961;52.940;6.834;2023-04-24T01:47:31;10.20;99.90
57026;DHT22;43961;52.940;6.834;2023-04-24T01:49:57;10.10;99.90
57026;DHT22;43961;52.940;6.834;2023-04-24T01:52:23;10.10;99.90
57026;DHT22;43961;52.940;6.834;2023-04-24T01:54:50;10.10;99.90
57026;DHT22;43961;52.940;6.834;2023-04-24T01:57:16;10.10;99.90
57026;DHT22;43961;52.940;6.834;2023-04-24T01:59:42;10.10;99.90
57026;DHT22;43961;52.940;6.834;2023-04-24T02:02:08;10.10;99.90
57026;DHT22;43961;52.940;6.834;2023-04-24T02:04:33;10.00;99.90
57026;DHT22;43961;52.940;6.834;2023-04-24T02:07:00;10.00;99.90
57026;DHT22;43961;52.940;6.834;2023-04-24T02:09:26;10.00;99.90
57026;DHT22;43961;52.940;6.834;2023-04-24T02:11:51;9.90;99.90
57026;DHT22;43961;52.940;6.834;2023-04-24T02:14:17;9.90;99.90
57026;DHT22;43961;52.940;6.834;2023-04-24T02:16:43;9.90;99.90
57026;DHT22;43961;52.940;6.834;2023-04-24T02:19:10;9.80;99.90
57026;DHT22;43961;52.940;6.834;2023-04-24T02:21:36;9.80;99.90
57026;DHT22;43961;52.940;6.834;2023-04-24T02:24:01;9.80;99.90
57026;DHT22;43961;52.940;6.834;2023-04-24T02:26:27;9.80;99.90
57026;DHT22;43961;52.940;6.834;2023-04-24T02:28:53;9.80;99.90
57026;DHT22;43961;52.940;6.834;2023-04-24T02:31:19;9.80;99.90
57026;DHT22;43961;52.940;6.834;2023-04-24T02:33:44;9.80;99.90
57026;DHT22;43961;52.940;6.834;2023-04-24T02:36:11;9.80;99.90
57026;DHT22;43961;52.940;6.834;2023-04-24T02:38:37;9.80;99.90
57026;DHT22;43961;52.940;6.834;2023-04-24T02:41:02;9.80;99.90
57026;DHT22;43961;52.940;6.834;2023-04-24T02:43:32;9.70;99.90
57026;DHT22;43961;52.940;6.834;2023-04-24T02:45:58;9.70;99.90
57026;DHT22;43961;52.940;6.834;2023-04-24T02:48:23;9.70;99.90
57026;DHT22;43961;52.940;6.834;2023-04-24T02:50:49;9.70;99.90
57026;DHT22;43961;52.940;6.834;2023-04-24T02:53:16;9.70;99.90
57026;DHT22;43961;52.940;6.834;2023-04-24T02:55:41;9.70;99.90
57026;DHT22;43961;52.940;6.834;2023-04-24T02:58:08;9.70;99.90
57026;DHT22;43961;52.940;6.834;2023-04-24T03:00:34;9.70;99.90
57026;DHT22;43961;52.940;6.834;2023-04-24T03:02:59;9.70;99.90
57026;DHT22;43961;52.940;6.834;2023-04-24T03:05:25;9.70;99.90
57026;DHT22;43961;52.940;6.834;2023-04-24T03:07:52;9.70;99.90
57026;DHT22;43961;52.940;6.834;2023-04-24T03:10:18;9.70;99.90
57026;DHT22;43961;52.940;6.834;2023-04-24T03:12:45;9.70;99.90
57026;DHT22;43961;52.940;6.834;2023-04-24T03:15:11;9.70;99.90
57026;DHT22;43961;52.940;6.834;2023-04-24T03:17:36;9.60;99.90
57026;DHT22;43961;52.940;6.834;2023-04-24T03:20:03;9.60;99.90
57026;DHT22;43961;52.940;6.834;2023-04-24T03:22:30;9.60;99.90
57026;DHT22;43961;52.940;6.834;2023-04-24T03:24:58;9.60;99.90
57026;DHT22;43961;52.940;6.834;2023-04-24T03:27:23;9.60;99.90
57026;DHT22;43961;52.940;6.834;2023-04-24T03:29:49;9.60;99.90
57026;DHT22;43961;52.940;6.834;2023-04-24T03:32:19;9.60;99.90
57026;DHT22;43961;52.940;6.834;2023-04-24T03:34:45;9.60;99.90
57026;DHT22;43961;52.940;6.834;2023-04-24T03:37:10;9.60;99.90
57026;DHT22;43961;52.940;6.834;2023-04-24T03:39:36;9.50;99.90
57026;DHT22;43961;52.940;6.834;2023-04-24T03:42:01;9.60;99.90
57026;DHT22;43961;52.940;6.834;2023-04-24T03:44:27;9.60;99.90
57026;DHT22;43961;52.940;6.834;2023-04-24T03:46:53;9.50;99.90
57026;DHT22;43961;52.940;6.834;2023-04-24T03:49:19;9.50;99.90
57026;DHT22;43961;52.940;6.834;2023-04-24T03:51:44;9.50;99.90
57026;DHT22;43961;52.940;6.834;2023-04-24T03:54:10;9.60;99.90
57026;DHT22;43961;52.940;6.834;2023-04-24T03:56:36;9.60;99.90
57026;DHT22;43961;52.940;6.834;2023-04-24T03:59:02;9.50;99.90
57026;DHT22;43961;52.940;6.834;2023-04-24T04:01:27;9.50;99.90
57026;DHT22;43961;52.940;6.834;2023-04-24T04:03:53;9.50;99.90
57026;DHT22;43961;52.940;6.834;2023-04-24T04:06:20;9.50;99.90
57026;DHT22;43961;52.940;6.834;2023-04-24T04:08:47;9.50;99.90
57026;DHT22;43961;52.940;6.834;2023-04-24T04:11:12;9.50;99.90
57026;DHT22;43961;52.940;6.834;2023-04-24T04:13:38;9.50;99.90
57026;DHT22;43961;52.940;6.834;2023-04-24T04:16:04;9.50;99.90
57026;DHT22;43961;52.940;6.834;2023-04-24T04:18:31;9.50;99.90
57026;DHT22;43961;52.940;6.834;2023-04-24T04:20:56;9.60;99.90
57026;DHT22;43961;52.940;6.834;2023-04-24T04:23:23;9.50;99.90
57026;DHT22;43961;52.940;6.834;2023-04-24T04:25:48;9.50;99.90
57026;DHT22;43961;52.940;6.834;2023-04-24T04:28:15;9.50;99.90
57026;DHT22;43961;52.940;6.834;2023-04-24T04:30:41;9.50;99.90
57026;DHT22;43961;52.940;6.834;2023-04-24T04:33:06;9.50;99.90
57026;DHT22;43961;52.940;6.834;2023-04-24T04:35:33;9.50;99.90
57026;DHT22;43961;52.940;6.834;2023-04-24T04:37:59;9.50;99.90
57026;DHT22;43961;52.940;6.834;2023-04-24T04:40:24;9.50;99.90
57026;DHT22;43961;52.940;6.834;2023-04-24T04:42:50;9.50;99.90
57026;DHT22;43961;52.940;6.834;2023-04-24T04:45:18;9.50;99.90
57026;DHT22;43961;52.940;6.834;2023-04-24T04:47:46;9.50;99.90
57026;DHT22;43961;52.940;6.834;2023-04-24T04:50:12;9.50;99.90
57026;DHT22;43961;52.940;6.834;2023-04-24T04:52:37;9.60;99.90
57026;DHT22;43961;52.940;6.834;2023-04-24T04:55:04;9.60;99.90
57026;DHT22;43961;52.940;6.834;2023-04-24T04:57:30;9.50;99.90
57026;DHT22;43961;52.940;6.834;2023-04-24T04:59:56;9.60;99.90
57026;DHT22;43961;52.940;6.834;2023-04-24T05:02:22;9.50;99.90
57026;DHT22;43961;52.940;6.834;2023-04-24T05:04:47;9.60;99.90
57026;DHT22;43961;52.940;6.834;2023-04-24T05:07:13;9.50;99.90
57026;DHT22;43961;52.940;6.834;2023-04-24T05:09:39;9.50;99.90
57026;DHT22;43961;52.940;6.834;2023-04-24T05:12:04;9.50;99.90
57026;DHT22;43961;52.940;6.834;2023-04-24T05:14:30;9.50;99.90
57026;DHT22;43961;52.940;6.834;2023-04-24T05:16:57;9.50;99.90
57026;DHT22;43961;52.940;6.834;2023-04-24T05:19:22;9.50;99.90
57026;DHT22;43961;52.940;6.834;2023-04-24T05:21:48;9.50;99.90
57026;DHT22;43961;52.940;6.834;2023-04-24T05:24:13;9.40;99.90
57026;DHT22;43961;52.940;6.834;2023-04-24T05:26:39;9.50;99.90
57026;DHT22;43961;52.940;6.834;2023-04-24T05:29:05;9.40;99.90
57026;DHT22;43961;52.940;6.834;2023-04-24T05:31:32;9.50;99.90
57026;DHT22;43961;52.940;6.834;2023-04-24T05:33:57;9.50;99.90
57026;DHT22;43961;52.940;6.834;2023-04-24T05:36:23;9.50;99.90
57026;DHT22;43961;52.940;6.834;2023-04-24T05:38:48;9.50;99.90
57026;DHT22;43961;52.940;6.834;2023-04-24T05:41:14;9.50;99.90
57026;DHT22;43961;52.940;6.834;2023-04-24T05:43:40;9.50;99.90
57026;DHT22;43961;52.940;6.834;2023-04-24T05:46:06;9.50;99.90
57026;DHT22;43961;52.940;6.834;2023-04-24T05:48:31;9.50;99.90
57026;DHT22;43961;52.940;6.834;2023-04-24T05:50:57;9.50;99.90
57026;DHT22;43961;52.940;6.834;2023-04-24T05:53:23;9.50;99.90
57026;DHT22;43961;52.940;6.834;2023-04-24T05:55:48;9.50;99.90
57026;DHT22;43961;52.940;6.834;2023-04-24T05:58:15;9.50;99.90
57026;DHT22;43961;52.940;6.834;2023-04-24T06:00:40;9.50;99.90
57026;DHT22;43961;52.940;6.834;2023-04-24T06:03:08;9.50;99.90
57026;DHT22;43961;52.940;6.834;2023-04-24T06:05:34;9.60;99.90
57026;DHT22;43961;52.940;6.834;2023-04-24T06:08:00;9.60;99.90
57026;DHT22;43961;52.940;6.834;2023-04-24T06:10:26;9.60;99.90
57026;DHT22;43961;52.940;6.834;2023-04-24T06:12:51;9.70;99.90
57026;DHT22;43961;52.940;6.834;2023-04-24T06:15:17;9.70;99.90
57026;DHT22;43961;52.940;6.834;2023-04-24T06:17:43;9.70;99.90
57026;DHT22;43961;52.940;6.834;2023-04-24T06:20:09;9.80;99.90
57026;DHT22;43961;52.940;6.834;2023-04-24T06:22:36;9.80;99.90
57026;DHT22;43961;52.940;6.834;2023-04-24T06:25:02;9.80;99.90
57026;DHT22;43961;52.940;6.834;2023-04-24T06:27:27;9.80;99.90
57026;DHT22;43961;52.940;6.834;2023-04-24T06:29:53;9.80;99.90
57026;DHT22;43961;52.940;6.834;2023-04-24T06:32:23;9.90;99.90
57026;DHT22;43961;52.940;6.834;2023-04-24T06:34:50;9.90;99.90
57026;DHT22;43961;52.940;6.834;2023-04-24T06:37:16;9.90;99.90
57026;DHT22;43961;52.940;6.834;2023-04-24T06:39:44;9.90;99.90
57026;DHT22;43961;52.940;6.834;2023-04-24T06:42:09;9.90;99.90
57026;DHT22;43961;52.940;6.834;2023-04-24T06:44:35;10.00;99.90
57026;DHT22;43961;52.940;6.834;2023-04-24T06:47:15;10.00;99.90
57026;DHT22;43961;52.940;6.834;2023-04-24T06:49:41;10.00;99.90
57026;DHT22;43961;52.940;6.834;2023-04-24T06:52:06;10.00;99.90
57026;DHT22;43961;52.940;6.834;2023-04-24T06:54:32;10.00;99.90
57026;DHT22;43961;52.940;6.834;2023-04-24T06:57:00;10.10;99.90
57026;DHT22;43961;52.940;6.834;2023-04-24T06:59:27;10.10;99.90
57026;DHT22;43961;52.940;6.834;2023-04-24T07:01:54;10.10;99.90
57026;DHT22;43961;52.940;6.834;2023-04-24T07:04:20;10.10;99.90
57026;DHT22;43961;52.940;6.834;2023-04-24T07:06:46;10.20;99.90
57026;DHT22;43961;52.940;6.834;2023-04-24T07:09:12;10.10;99.90
57026;DHT22;43961;52.940;6.834;2023-04-24T07:11:39;10.20;99.90
57026;DHT22;43961;52.940;6.834;2023-04-24T07:14:06;10.20;99.90
57026;DHT22;43961;52.940;6.834;2023-04-24T07:16:32;10.20;99.90
57026;DHT22;43961;52.940;6.834;2023-04-24T07:18:58;10.20;99.90
57026;DHT22;43961;52.940;6.834;2023-04-24T07:21:24;10.20;99.90
57026;DHT22;43961;52.940;6.834;2023-04-24T07:23:50;10.20;99.90
57026;DHT22;43961;52.940;6.834;2023-04-24T07:26:16;10.20;99.90
57026;DHT22;43961;52.940;6.834;2023-04-24T07:28:43;10.30;99.90
57026;DHT22;43961;52.940;6.834;2023-04-24T07:31:09;10.30;99.90
57026;DHT22;43961;52.940;6.834;2023-04-24T07:33:35;10.40;99.90
57026;DHT22;43961;52.940;6.834;2023-04-24T07:36:01;10.40;99.90
57026;DHT22;43961;52.940;6.834;2023-04-24T07:38:29;10.50;99.90
57026;DHT22;43961;52.940;6.834;2023-04-24T07:40:55;10.50;99.90
57026;DHT22;43961;52.940;6.834;2023-04-24T07:43:21;10.60;99.90
57026;DHT22;43961;52.940;6.834;2023-04-24T07:45:49;10.60;99.90
57026;DHT22;43961;52.940;6.834;2023-04-24T07:48:17;10.70;99.90
57026;DHT22;43961;52.940;6.834;2023-04-24T07:50:44;10.70;99.90
57026;DHT22;43961;52.940;6.834;2023-04-24T07:53:10;10.70;99.90
57026;DHT22;43961;52.940;6.834;2023-04-24T07:55:36;10.70;99.90
57026;DHT22;43961;52.940;6.834;2023-04-24T07:58:02;10.70;99.90
57026;DHT22;43961;52.940;6.834;2023-04-24T08:00:27;10.70;99.90
57026;DHT22;43961;52.940;6.834;2023-04-24T08:02:53;10.70;99.90
57026;DHT22;43961;52.940;6.834;2023-04-24T08:05:19;10.70;99.90
57026;DHT22;43961;52.940;6.834;2023-04-24T08:07:46;10.70;99.90
57026;DHT22;43961;52.940;6.834;2023-04-24T08:10:14;10.70;99.90
57026;DHT22;43961;52.940;6.834;2023-04-24T08:12:41;10.70;99.90
57026;DHT22;43961;52.940;6.834;2023-04-24T08:15:07;10.60;99.90
57026;DHT22;43961;52.940;6.834;2023-04-24T08:17:34;10.60;99.90
57026;DHT22;43961;52.940;6.834;2023-04-24T08:20:05;10.60;99.90
57026;DHT22;43961;52.940;6.834;2023-04-24T08:22:31;10.70;99.90
57026;DHT22;43961;52.940;6.834;2023-04-24T08:24:58;10.70;99.90
57026;DHT22;43961;52.940;6.834;2023-04-24T08:27:24;10.70;99.90
57026;DHT22;43961;52.940;6.834;2023-04-24T08:29:52;10.70;99.90
57026;DHT22;43961;52.940;6.834;2023-04-24T08:32:18;10.60;99.90
57026;DHT22;43961;52.940;6.834;2023-04-24T08:34:44;10.50;99.90
57026;DHT22;43961;52.940;6.834;2023-04-24T08:37:10;10.50;99.90
57026;DHT22;43961;52.940;6.834;2023-04-24T08:39:37;10.40;99.90
57026;DHT22;43961;52.940;6.834;2023-04-24T08:42:03;10.40;99.90
57026;DHT22;43961;52.940;6.834;2023-04-24T08:44:35;10.40;99.90
57026;DHT22;43961;52.940;6.834;2023-04-24T08:47:01;10.40;99.90
57026;DHT22;43961;52.940;6.834;2023-04-24T08:49:28;10.40;99.90
57026;DHT22;43961;52.940;6.834;2023-04-24T08:51:54;10.30;99.90
57026;DHT22;43961;52.940;6.834;2023-04-24T08:54:20;10.30;99.90
57026;DHT22;43961;52.940;6.834;2023-04-24T08:56:49;10.20;99.90
57026;DHT22;43961;52.940;6.834;2023-04-24T08:59:16;10.20;99.90
57026;DHT22;43961;52.940;6.834;2023-04-24T09:01:41;10.20;99.90
57026;DHT22;43961;52.940;6.834;2023-04-24T09:04:09;10.20;99.90
57026;DHT22;43961;52.940;6.834;2023-04-24T09:06:39;10.20;99.90
57026;DHT22;43961;52.940;6.834;2023-04-24T09:09:04;10.10;99.90
57026;DHT22;43961;52.940;6.834;2023-04-24T09:11:31;10.10;99.90
57026;DHT22;43961;52.940;6.834;2023-04-24T09:14:01;10.10;99.90
57026;DHT22;43961;52.940;6.834;2023-04-24T09:16:27;10.00;99.90
57026;DHT22;43961;52.940;6.834;2023-04-24T09:18:53;10.00;99.90
57026;DHT22;43961;52.940;6.834;2023-04-24T09:21:21;9.90;99.90
57026;DHT22;43961;52.940;6.834;2023-04-24T09:23:58;9.90;99.90
57026;DHT22;43961;52.940;6.834;2023-04-24T09:26:24;9.90;99.90
57026;DHT22;43961;52.940;6.834;2023-04-24T09:28:50;9.80;99.90
57026;DHT22;43961;52.940;6.834;2023-04-24T09:31:18;9.80;99.90
57026;DHT22;43961;52.940;6.834;2023-04-24T09:34:13;9.80;99.90
57026;DHT22;43961;52.940;6.834;2023-04-24T09:36:41;9.70;99.90
57026;DHT22;43961;52.940;6.834;2023-04-24T09:39:11;9.70;99.90
57026;DHT22;43961;52.940;6.834;2023-04-24T09:41:46;9.70;99.90
57026;DHT22;43961;52.940;6.834;2023-04-24T09:44:17;9.60;99.90
57026;DHT22;43961;52.940;6.834;2023-04-24T09:46:44;9.60;99.90
57026;DHT22;43961;52.940;6.834;2023-04-24T09:49:13;9.60;99.90
57026;DHT22;43961;52.940;6.834;2023-04-24T09:51:40;9.50;99.90
57026;DHT22;43961;52.940;6.834;2023-04-24T09:54:17;9.60;99.90
57026;DHT22;43961;52.940;6.834;2023-04-24T09:56:47;9.60;99.90
57026;DHT22;43961;52.940;6.834;2023-04-24T09:59:14;9.60;99.90
57026;DHT22;43961;52.940;6.834;2023-04-24T10:01:40;9.60;99.90
57026;DHT22;43961;52.940;6.834;2023-04-24T10:04:23;9.70;99.90
57026;DHT22;43961;52.940;6.834;2023-04-24T10:06:51;9.70;99.90
57026;DHT22;43961;52.940;6.834;2023-04-24T10:09:18;9.70;99.90
57026;DHT22;43961;52.940;6.834;2023-04-24T10:11:49;9.80;99.90
57026;DHT22;43961;52.940;6.834;2023-04-24T10:14:17;9.80;99.90
57026;DHT22;43961;52.940;6.834;2023-04-24T10:16:44;9.80;99.90
57026;DHT22;43961;52.940;6.834;2023-04-24T10:19:13;9.70;99.90
57026;DHT22;43961;52.940;6.834;2023-04-24T10:21:40;9.80;99.90
57026;DHT22;43961;52.940;6.834;2023-04-24T10:24:17;9.70;99.90
57026;DHT22;43961;52.940;6.834;2023-04-24T10:26:44;9.80;99.90
57026;DHT22;43961;52.940;6.834;2023-04-24T10:29:11;9.80;99.90
57026;DHT22;43961;52.940;6.834;2023-04-24T10:31:38;9.80;99.90
57026;DHT22;43961;52.940;6.834;2023-04-24T10:34:09;9.80;99.90
57026;DHT22;43961;52.940;6.834;2023-04-24T10:36:40;9.80;99.90
57026;DHT22;43961;52.940;6.834;2023-04-24T10:39:11;9.80;99.90
57026;DHT22;43961;52.940;6.834;2023-04-24T10:41:38;9.80;99.90
57026;DHT22;43961;52.940;6.834;2023-04-24T10:44:08;9.80;99.90
57026;DHT22;43961;52.940;6.834;2023-04-24T10:46:35;9.80;99.90
57026;DHT22;43961;52.940;6.834;2023-04-24T10:49:05;9.90;99.90
57026;DHT22;43961;52.940;6.834;2023-04-24T10:51:53;9.90;99.90
57026;DHT22;43961;52.940;6.834;2023-04-24T10:54:44;9.90;99.90
57026;DHT22;43961;52.940;6.834;2023-04-24T10:59:45;10.00;99.90
57026;DHT22;43961;52.940;6.834;2023-04-24T11:02:14;10.00;99.90
57026;DHT22;43961;52.940;6.834;2023-04-24T11:04:41;10.00;99.90
57026;DHT22;43961;52.940;6.834;2023-04-24T11:07:09;10.10;99.90
57026;DHT22;43961;52.940;6.834;2023-04-24T11:09:36;10.00;99.90
57026;DHT22;43961;52.940;6.834;2023-04-24T11:12:08;10.00;99.90
57026;DHT22;43961;52.940;6.834;2023-04-24T11:17:37;9.90;99.90
57026;DHT22;43961;52.940;6.834;2023-04-24T11:20:08;9.90;99.90
57026;DHT22;43961;52.940;6.834;2023-04-24T11:22:38;9.90;99.90
57026;DHT22;43961;52.940;6.834;2023-04-24T11:25:09;9.90;99.90
57026;DHT22;43961;52.940;6.834;2023-04-24T11:27:44;9.90;99.90
57026;DHT22;43961;52.940;6.834;2023-04-24T11:30:20;10.00;99.90
57026;DHT22;43961;52.940;6.834;2023-04-24T11:32:51;10.10;99.90
57026;DHT22;43961;52.940;6.834;2023-04-24T11:35:22;10.20;99.90
57026;DHT22;43961;52.940;6.834;2023-04-24T11:37:53;10.30;99.90
57026;DHT22;43961;52.940;6.834;2023-04-24T11:40:21;10.40;99.90
57026;DHT22;43961;52.940;6.834;2023-04-24T11:42:52;10.40;99.90
57026;DHT22;43961;52.940;6.834;2023-04-24T11:45:27;10.40;99.90
57026;DHT22;43961;52.940;6.834;2023-04-24T11:47:53;10.30;99.90
57026;DHT22;43961;52.940;6.834;2023-04-24T11:50:22;10.30;99.90
57026;DHT22;43961;52.940;6.834;2023-04-24T11:52:49;10.30;99.90
57026;DHT22;43961;52.940;6.834;2023-04-24T11:57:46;10.20;99.90
57026;DHT22;43961;52.940;6.834;2023-04-24T12:00:19;10.20;99.90
57026;DHT22;43961;52.940;6.834;2023-04-24T12:02:46;10.20;99.90
57026;DHT22;43961;52.940;6.834;2023-04-24T12:05:26;10.20;99.90
57026;DHT22;43961;52.940;6.834;2023-04-24T12:07:52;10.30;99.90
57026;DHT22;43961;52.940;6.834;2023-04-24T12:10:27;10.30;99.90
57026;DHT22;43961;52.940;6.834;2023-04-24T12:12:53;10.30;99.90
57026;DHT22;43961;52.940;6.834;2023-04-24T12:15:20;10.30;99.90
57026;DHT22;43961;52.940;6.834;2023-04-24T12:17:46;10.20;99.90
57026;DHT22;43961;52.940;6.834;2023-04-24T12:20:13;10.20;99.90
57026;DHT22;43961;52.940;6.834;2023-04-24T12:22:56;10.20;99.90
57026;DHT22;43961;52.940;6.834;2023-04-24T12:25:25;10.10;99.90
57026;DHT22;43961;52.940;6.834;2023-04-24T12:30:32;10.00;99.90
57026;DHT22;43961;52.940;6.834;2023-04-24T12:32:59;9.90;99.90
57026;DHT22;43961;52.940;6.834;2023-04-24T12:35:28;9.90;99.90
57026;DHT22;43961;52.940;6.834;2023-04-24T12:37:54;9.90;99.90
57026;DHT22;43961;52.940;6.834;2023-04-24T12:40:21;9.80;99.90
57026;DHT22;43961;52.940;6.834;2023-04-24T12:42:51;9.80;99.90
57026;DHT22;43961;52.940;6.834;2023-04-24T12:45:20;10.00;99.90
57026;DHT22;43961;52.940;6.834;2023-04-24T12:47:48;10.00;99.90
57026;DHT22;43961;52.940;6.834;2023-04-24T12:50:15;10.00;99.90
57026;DHT22;43961;52.940;6.834;2023-04-24T12:52:41;10.10;99.90
57026;DHT22;43961;52.940;6.834;2023-04-24T12:55:08;10.10;99.90
57026;DHT22;43961;52.940;6.834;2023-04-24T12:57:36;10.20;99.90
57026;DHT22;43961;52.940;6.834;2023-04-24T13:00:03;10.20;99.90
57026;DHT22;43961;52.940;6.834;2023-04-24T13:02:30;10.20;99.90
57026;DHT22;43961;52.940;6.834;2023-04-24T13:04:57;10.10;99.90
57026;DHT22;43961;52.940;6.834;2023-04-24T13:07:23;10.10;99.90
57026;DHT22;43961;52.940;6.834;2023-04-24T13:09:51;10.10;99.90
57026;DHT22;43961;52.940;6.834;2023-04-24T13:12:17;10.00;99.90
57026;DHT22;43961;52.940;6.834;2023-04-24T13:14:43;10.00;99.90
57026;DHT22;43961;52.940;6.834;2023-04-24T13:17:09;10.10;99.90
57026;DHT22;43961;52.940;6.834;2023-04-24T13:19:36;10.10;99.90
57026;DHT22;43961;52.940;6.834;2023-04-24T13:22:03;10.00;99.90
57026;DHT22;43961;52.940;6.834;2023-04-24T13:24:29;10.00;99.90
57026;DHT22;43961;52.940;6.834;2023-04-24T13:26:56;10.00;99.90
57026;DHT22;43961;52.940;6.834;2023-04-24T13:29:22;10.00;99.90
57026;DHT22;43961;52.940;6.834;2023-04-24T13:31:50;10.00;99.90
57026;DHT22;43961;52.940;6.834;2023-04-24T13:34:17;10.00;99.90
57026;DHT22;43961;52.940;6.834;2023-04-24T13:36:43;9.90;99.90
57026;DHT22;43961;52.940;6.834;2023-04-24T13:39:09;9.90;99.90
57026;DHT22;43961;52.940;6.834;2023-04-24T13:41:37;10.00;99.90
57026;DHT22;43961;52.940;6.834;2023-04-24T13:44:03;9.90;99.90
57026;DHT22;43961;52.940;6.834;2023-04-24T13:46:29;10.00;99.90
57026;DHT22;43961;52.940;6.834;2023-04-24T13:48:55;10.10;99.90
57026;DHT22;43961;52.940;6.834;2023-04-24T13:51:22;10.00;99.90
57026;DHT22;43961;52.940;6.834;2023-04-24T13:53:48;10.10;99.90
57026;DHT22;43961;52.940;6.834;2023-04-24T13:56:14;10.10;99.90
57026;DHT22;43961;52.940;6.834;2023-04-24T13:58:39;10.20;99.90
57026;DHT22;43961;52.940;6.834;2023-04-24T14:01:05;10.10;99.90
57026;DHT22;43961;52.940;6.834;2023-04-24T14:03:33;10.10;99.90
57026;DHT22;43961;52.940;6.834;2023-04-24T14:05:59;10.00;99.90
57026;DHT22;43961;52.940;6.834;2023-04-24T14:08:25;10.00;99.90
57026;DHT22;43961;52.940;6.834;2023-04-24T14:10:51;10.00;99.90
57026;DHT22;43961;52.940;6.834;2023-04-24T14:13:17;10.10;99.90
57026;DHT22;43961;52.940;6.834;2023-04-24T14:15:43;10.20;99.90
57026;DHT22;43961;52.940;6.834;2023-04-24T14:18:08;10.20;99.90
57026;DHT22;43961;52.940;6.834;2023-04-24T14:20:35;10.30;99.90
57026;DHT22;43961;52.940;6.834;2023-04-24T14:23:00;10.30;99.90
57026;DHT22;43961;52.940;6.834;2023-04-24T14:25:26;10.30;99.90
57026;DHT22;43961;52.940;6.834;2023-04-24T14:27:52;10.40;99.90
57026;DHT22;43961;52.940;6.834;2023-04-24T14:30:18;10.40;99.90
57026;DHT22;43961;52.940;6.834;2023-04-24T14:32:44;10.50;99.90
57026;DHT22;43961;52.940;6.834;2023-04-24T14:35:10;10.50;99.90
57026;DHT22;43961;52.940;6.834;2023-04-24T14:37:36;10.50;99.90
57026;DHT22;43961;52.940;6.834;2023-04-24T14:40:03;10.40;99.90
57026;DHT22;43961;52.940;6.834;2023-04-24T14:42:30;10.40;99.90
57026;DHT22;43961;52.940;6.834;2023-04-24T14:44:56;10.30;99.90
57026;DHT22;43961;52.940;6.834;2023-04-24T14:47:22;10.30;99.90
57026;DHT22;43961;52.940;6.834;2023-04-24T14:49:48;10.30;99.90
57026;DHT22;43961;52.940;6.834;2023-04-24T14:52:14;10.10;99.90
57026;DHT22;43961;52.940;6.834;2023-04-24T14:54:39;10.10;99.90
57026;DHT22;43961;52.940;6.834;2023-04-24T14:57:05;10.00;99.90
57026;DHT22;43961;52.940;6.834;2023-04-24T14:59:32;10.00;99.90
57026;DHT22;43961;52.940;6.834;2023-04-24T15:01:58;9.90;99.90
57026;DHT22;43961;52.940;6.834;2023-04-24T15:04:24;9.90;99.90
57026;DHT22;43961;52.940;6.834;2023-04-24T15:06:53;9.80;99.90
57026;DHT22;43961;52.940;6.834;2023-04-24T15:09:23;9.80;99.90
57026;DHT22;43961;52.940;6.834;2023-04-24T15:11:50;9.70;99.90
57026;DHT22;43961;52.940;6.834;2023-04-24T15:14:17;9.70;99.90
57026;DHT22;43961;52.940;6.834;2023-04-24T15:16:44;9.70;99.90
57026;DHT22;43961;52.940;6.834;2023-04-24T15:19:10;9.70;99.90
57026;DHT22;43961;52.940;6.834;2023-04-24T15:21:37;9.80;99.90
57026;DHT22;43961;52.940;6.834;2023-04-24T15:24:06;9.80;99.90
57026;DHT22;43961;52.940;6.834;2023-04-24T15:26:33;9.80;99.90
57026;DHT22;43961;52.940;6.834;2023-04-24T15:28:59;9.70;99.90
57026;DHT22;43961;52.940;6.834;2023-04-24T15:31:25;9.70;99.90
57026;DHT22;43961;52.940;6.834;2023-04-24T15:33:51;9.60;99.90
57026;DHT22;43961;52.940;6.834;2023-04-24T15:36:17;9.60;99.90
57026;DHT22;43961;52.940;6.834;2023-04-24T15:38:43;9.60;99.90
57026;DHT22;43961;52.940;6.834;2023-04-24T15:41:10;9.60;99.90
57026;DHT22;43961;52.940;6.834;2023-04-24T15:43:39;9.60;99.90
57026;DHT22;43961;52.940;6.834;2023-04-24T15:46:06;9.60;99.90